Time,TemperatureF,DewpointF,PressureIn,WindDirection,WindDirectionDegrees,WindSpeedMPH,WindSpeedGustMPH,Humidity,HourlyPrecipIn,Conditions,Clouds,dailyrainin,SoftwareType,DateUTC
2013-01-01 00:00:00,71.8,59.4,30.14,SE,135,5.8,5.8,65,0.00,CLR,,0.00,WeatherDisplay:10.37,2013-01-01 05:00:00,
2013-01-01 00:02:00,71.8,59.4,30.14,ESE,112,5.9,5.9,65,0.00,CLR,,0.00,WeatherDisplay:10.37,2013-01-01 05:02:00,
2013-01-01 00:07:00,71.8,59.4,30.14,ESE,112,6.2,6.2,65,0.00,CLR,,0.00,WeatherDisplay:10.37,2013-01-01 05:07:00,
2013-01-01 00:12:00,71.8,59.4,30.14,SE,135,3.5,4.6,65,0.00,CLR,,0.00,WeatherDisplay:10.37,2013-01-01 05:12:00,
2013-01-01 00:17:00,71.6,59.2,30.14,South,180,5.8,5.8,65,0.00,CLR,,0.00,WeatherDisplay:10.37,2013-01-01 05:17:00,
2013-01-01 00:22:00,71.4,59.0,30.14,SE,135,6.9,6.9,65,0.00,CLR,,0.00,WeatherDisplay:10.37,2013-01-01 05:22:00,
2013-01-01 00:27:00,71.2,58.9,30.14,SE,135,3.5,3.8,65,0.00,CLR,,0.00,WeatherDisplay:10.37,2013-01-01 05:27:00,
2013-01-01 00:32:00,71.4,59.0,30.14,SE,135,3.5,3.5,65,0.00,CLR,,0.00,WeatherDisplay:10.37,2013-01-01 05:32:00,
2013-01-01 00:37:00,71.4,59.0,30.14,SSE,158,4.6,4.6,65,0.00,CLR,,0.00,WeatherDisplay:10.37,2013-01-01 05:37:00,
2013-01-01 00:42:00,71.6,59.2,30.14,SSE,158,6.9,6.9,65,0.00,CLR,,0.00,WeatherDisplay:10.37,2013-01-01 05:42:00,
2013-01-01 00:47:00,71.4,58.6,30.13,SE,135,4.6,4.6,64,0.00,CLR,,0.00,WeatherDisplay:10.37,2013-01-01 05:47:00,
2013-01-01 00:52:00,71.4,59.0,30.13,SSE,158,3.5,4.1,65,0.00,CLR,,0.00,WeatherDisplay:10.37,2013-01-01 05:52:00,
2013-01-01 00:57:00,71.4,59.0,30.13,SW,225,4.6,4.6,65,0.00,CLR,,0.00,WeatherDisplay:10.37,2013-01-01 05:57:00,
2013-01-01 01:02:00,71.4,59.0,30.13,SW,225,2.3,2.5,65,0.00,CLR,,0.00,WeatherDisplay:10.37,2013-01-01 06:02:00,
2013-01-01 01:07:00,71.6,59.6,30.13,SE,135,7.2,7.2,66,0.00,CLR,,0.00,WeatherDisplay:10.37,2013-01-01 06:07:00,
2013-01-01 01:12:00,71.6,60.1,30.13,SSE,158,9.7,9.7,67,0.00,CLR,,0.00,WeatherDisplay:10.37,2013-01-01 06:12:00,
2013-01-01 01:17:00,71.6,59.6,30.13,SE,135,12.7,12.7,66,0.00,CLR,,0.00,WeatherDisplay:10.37,2013-01-01 06:17:00,
2013-01-01 01:22:00,71.8,59.8,30.13,South,180,4.6,4.9,66,0.00,CLR,,0.00,WeatherDisplay:10.37,2013-01-01 06:22:00,
2013-01-01 01:27:00,71.8,59.8,30.13,SE,135,4.6,4.6,66,0.00,CLR,,0.00,WeatherDisplay:10.37,2013-01-01 06:27:00,
2013-01-01 01:32:00,71.8,59.8,30.13,SSE,158,15.0,15.0,66,0.00,CLR,,0.00,WeatherDisplay:10.37,2013-01-01 06:32:00,
2013-01-01 01:37:00,71.8,59.8,30.13,SSE,158,7.5,7.5,66,0.00,CLR,,0.00,WeatherDisplay:10.37,2013-01-01 06:37:00,
2013-01-01 01:42:00,71.8,59.8,30.13,South,180,5.2,5.3,66,0.00,CLR,,0.00,WeatherDisplay:10.37,2013-01-01 06:42:00,
2013-01-01 01:47:00,71.4,59.0,30.12,SE,135,4.6,4.9,65,0.00,CLR,,0.00,WeatherDisplay:10.37,2013-01-01 06:47:00,
2013-01-01 01:52:00,71.4,59.0,30.12,SE,135,6.9,6.9,65,0.00,CLR,,0.00,WeatherDisplay:10.37,2013-01-01 06:52:00,
2013-01-01 01:57:00,71.4,59.0,30.12,ESE,112,5.8,5.8,65,0.00,CLR,,0.00,WeatherDisplay:10.37,2013-01-01 06:57:00,
2013-01-01 02:02:00,71.4,58.6,30.12,SE,135,5.1,5.1,64,0.00,CLR,,0.00,WeatherDisplay:10.37,2013-01-01 07:02:00,
2013-01-01 02:07:00,71.4,59.0,30.12,SE,135,4.6,4.8,65,0.00,CLR,,0.00,WeatherDisplay:10.37,2013-01-01 07:07:00,
2013-01-01 02:12:00,71.4,59.5,30.12,ESE,112,5.6,5.6,66,0.00,CLR,,0.00,WeatherDisplay:10.37,2013-01-01 07:12:00,
2013-01-01 02:17:00,71.4,59.0,30.12,East,90,5.8,5.8,65,0.00,CLR,,0.00,WeatherDisplay:10.37,2013-01-01 07:17:00,
2013-01-01 02:22:00,71.4,59.0,30.12,SE,135,4.6,4.6,65,0.00,CLR,,0.00,WeatherDisplay:10.37,2013-01-01 07:22:00,
2013-01-01 02:27:00,71.4,59.0,30.12,SE,135,6.9,6.9,65,0.00,CLR,,0.00,WeatherDisplay:10.37,2013-01-01 07:27:00,
2013-01-01 02:32:00,71.2,58.9,30.12,SE,135,3.9,3.9,65,0.00,CLR,,0.00,WeatherDisplay:10.37,2013-01-01 07:32:00,
2013-01-01 02:37:00,71.4,59.0,30.12,ENE,68,4.6,4.6,65,0.00,CLR,,0.00,WeatherDisplay:10.37,2013-01-01 07:37:00,
2013-01-01 02:42:00,71.4,59.0,30.12,SE,135,3.5,3.5,65,0.00,CLR,,0.00,WeatherDisplay:10.37,2013-01-01 07:42:00,
2013-01-01 02:47:00,71.4,59.5,30.11,SSE,158,4.6,4.6,66,0.00,CLR,,0.00,WeatherDisplay:10.37,2013-01-01 07:47:00,
2013-01-01 02:52:00,71.4,59.5,30.11,ESE,112,3.5,3.5,66,0.00,CLR,,0.00,WeatherDisplay:10.37,2013-01-01 07:52:00,
2013-01-01 02:57:00,71.4,59.5,30.11,SE,135,4.6,4.6,66,0.00,CLR,,0.00,WeatherDisplay:10.37,2013-01-01 07:57:00,
2013-01-01 03:02:00,71.4,59.5,30.11,ESE,112,3.5,3.5,66,0.00,CLR,,0.00,WeatherDisplay:10.37,2013-01-01 08:02:00,
2013-01-01 03:07:00,71.1,58.7,30.11,SE,135,5.8,5.8,65,0.00,CLR,,0.00,WeatherDisplay:10.37,2013-01-01 08:07:00,
2013-01-01 03:12:00,71.1,58.7,30.11,SE,135,2.3,3.2,65,0.00,CLR,,0.00,WeatherDisplay:10.37,2013-01-01 08:12:00,
2013-01-01 03:17:00,70.9,58.5,30.11,SE,135,1.4,2.4,65,0.00,CLR,,0.00,WeatherDisplay:10.37,2013-01-01 08:17:00,
2013-01-01 03:22:00,70.7,58.4,30.11,SE,135,5.1,5.1,65,0.00,CLR,,0.00,WeatherDisplay:10.37,2013-01-01 08:22:00,
2013-01-01 03:27:00,70.7,58.4,30.11,ESE,112,6.9,6.9,65,0.00,CLR,,0.00,WeatherDisplay:10.37,2013-01-01 08:27:00,
2013-01-01 03:32:00,70.7,58.8,30.11,SSE,158,2.0,2.8,66,0.00,CLR,,0.00,WeatherDisplay:10.37,2013-01-01 08:32:00,
2013-01-01 03:37:00,70.5,58.6,30.11,SE,135,3.5,3.5,66,0.00,CLR,,0.00,WeatherDisplay:10.37,2013-01-01 08:37:00,
2013-01-01 03:42:00,70.7,58.8,30.11,SE,135,4.8,4.8,66,0.00,CLR,,0.00,WeatherDisplay:10.37,2013-01-01 08:42:00,
2013-01-01 03:47:00,70.7,58.8,30.11,SE,135,3.5,3.5,66,0.00,CLR,,0.00,WeatherDisplay:10.37,2013-01-01 08:47:00,
2013-01-01 03:52:00,71.1,59.1,30.11,SE,135,4.6,4.6,66,0.00,CLR,,0.00,WeatherDisplay:10.37,2013-01-01 08:52:00,
2013-01-01 03:57:00,70.9,59.0,30.11,East,90,4.6,4.6,66,0.00,CLR,,0.00,WeatherDisplay:10.37,2013-01-01 08:57:00,
2013-01-01 04:02:00,71.1,59.1,30.11,South,180,2.3,2.9,66,0.00,CLR,,0.00,WeatherDisplay:10.37,2013-01-01 09:02:00,
2013-01-01 04:07:00,71.1,59.1,30.11,ESE,112,6.9,6.9,66,0.00,CLR,,0.00,WeatherDisplay:10.37,2013-01-01 09:07:00,
2013-01-01 04:12:00,71.1,58.7,30.11,SSE,158,5.8,5.8,65,0.00,CLR,,0.00,WeatherDisplay:10.37,2013-01-01 09:12:00,
2013-01-01 04:17:00,71.2,58.9,30.11,SSE,158,7.2,7.2,65,0.00,CLR,,0.00,WeatherDisplay:10.37,2013-01-01 09:17:00,
2013-01-01 04:22:00,71.1,58.3,30.11,ESE,112,8.3,8.3,64,0.00,CLR,,0.00,WeatherDisplay:10.37,2013-01-01 09:22:00,
2013-01-01 04:27:00,71.1,58.3,30.10,SE,135,6.9,6.9,64,0.00,CLR,,0.00,WeatherDisplay:10.37,2013-01-01 09:27:00,
2013-01-01 04:32:00,71.1,58.7,30.10,SSE,158,6.9,6.9,65,0.00,CLR,,0.00,WeatherDisplay:10.37,2013-01-01 09:32:00,
2013-01-01 04:37:00,70.7,58.4,30.10,SSE,158,4.7,4.7,65,0.00,CLR,,0.00,WeatherDisplay:10.37,2013-01-01 09:37:00,
2013-01-01 04:42:00,70.7,58.4,30.10,SSE,158,4.6,4.6,65,0.00,CLR,,0.00,WeatherDisplay:10.37,2013-01-01 09:42:00,
2013-01-01 04:47:00,70.5,58.2,30.10,NNE,22,4.6,4.6,65,0.00,CLR,,0.00,WeatherDisplay:10.37,2013-01-01 09:47:00,
2013-01-01 04:52:00,70.7,58.8,30.10,SE,135,2.3,3.1,66,0.00,CLR,,0.00,WeatherDisplay:10.37,2013-01-01 09:52:00,
2013-01-01 04:57:00,70.7,58.8,30.10,SE,135,2.3,2.3,66,0.00,CLR,,0.00,WeatherDisplay:10.37,2013-01-01 09:57:00,
2013-01-01 05:02:00,70.7,58.8,30.10,SSE,158,2.3,2.3,66,0.00,CLR,,0.00,WeatherDisplay:10.37,2013-01-01 10:02:00,
2013-01-01 05:07:00,70.5,58.6,30.09,ESE,112,2.6,2.6,66,0.00,CLR,,0.00,WeatherDisplay:10.37,2013-01-01 10:07:00,
2013-01-01 05:12:00,70.5,58.6,30.09,SE,135,2.8,2.8,66,0.00,CLR,,0.00,WeatherDisplay:10.37,2013-01-01 10:12:00,
2013-01-01 05:17:00,70.7,59.2,30.09,SE,135,3.5,3.5,67,0.00,CLR,,0.00,WeatherDisplay:10.37,2013-01-01 10:17:00,
2013-01-01 05:22:00,70.7,59.2,30.09,SSE,158,1.1,2.0,67,0.00,CLR,,0.00,WeatherDisplay:10.37,2013-01-01 10:22:00,
2013-01-01 05:27:00,70.9,59.8,30.08,ESE,112,3.5,3.5,68,0.00,CLR,,0.00,WeatherDisplay:10.37,2013-01-01 10:27:00,
2013-01-01 05:32:00,71.1,60.4,30.08,ESE,112,9.1,9.1,69,0.00,CLR,,0.00,WeatherDisplay:10.37,2013-01-01 10:32:00,
2013-01-01 05:38:00,71.1,60.4,30.08,ESE,112,3.5,3.7,69,0.00,CLR,,0.00,WeatherDisplay:10.37,2013-01-01 10:38:00,
2013-01-01 05:43:00,71.1,60.4,30.08,SE,135,5.8,5.8,69,0.00,CLR,,0.00,WeatherDisplay:10.37,2013-01-01 10:43:00,
2013-01-01 05:48:00,71.2,60.5,30.09,SE,135,4.7,4.7,69,0.00,CLR,,0.00,WeatherDisplay:10.37,2013-01-01 10:48:00,
2013-01-01 05:53:00,71.2,60.1,30.09,South,180,6.0,6.0,68,0.00,CLR,,0.00,WeatherDisplay:10.37,2013-01-01 10:53:00,
2013-01-01 05:58:00,71.4,60.3,30.09,South,180,6.1,6.1,68,0.00,CLR,,0.00,WeatherDisplay:10.37,2013-01-01 10:58:00,
2013-01-01 06:03:00,71.4,60.3,30.09,SE,135,4.6,4.6,68,0.00,CLR,,0.00,WeatherDisplay:10.37,2013-01-01 11:03:00,
2013-01-01 06:08:00,71.4,60.3,30.08,SE,135,7.0,7.0,68,0.00,CLR,,0.00,WeatherDisplay:10.37,2013-01-01 11:08:00,
2013-01-01 06:13:00,71.4,59.9,30.08,South,180,5.9,5.9,67,0.00,CLR,,0.00,WeatherDisplay:10.37,2013-01-01 11:13:00,
2013-01-01 06:18:00,71.4,59.9,30.08,ESE,112,4.6,4.7,67,0.00,CLR,,0.00,WeatherDisplay:10.37,2013-01-01 11:18:00,
2013-01-01 06:23:00,71.4,59.9,30.08,SSE,158,6.9,6.9,67,0.00,CLR,,0.00,WeatherDisplay:10.37,2013-01-01 11:23:00,
2013-01-01 06:28:00,71.4,59.9,30.08,ESE,112,8.1,8.1,67,0.00,CLR,,0.00,WeatherDisplay:10.37,2013-01-01 11:28:00,
2013-01-01 06:33:00,71.4,59.5,30.08,SE,135,8.1,8.1,66,0.00,CLR,,0.00,WeatherDisplay:10.37,2013-01-01 11:33:00,
2013-01-01 06:38:00,71.4,59.0,30.08,SE,135,4.6,4.7,65,0.00,CLR,,0.00,WeatherDisplay:10.37,2013-01-01 11:38:00,
2013-01-01 06:43:00,71.4,59.0,30.08,SE,135,4.6,4.6,65,0.00,CLR,,0.00,WeatherDisplay:10.37,2013-01-01 11:43:00,
2013-01-01 06:48:00,71.4,59.0,30.08,South,180,6.9,6.9,65,0.00,CLR,,0.00,WeatherDisplay:10.37,2013-01-01 11:48:00,
2013-01-01 06:53:00,71.2,59.3,30.08,SE,135,3.5,3.5,66,0.00,CLR,,0.00,WeatherDisplay:10.37,2013-01-01 11:53:00,
2013-01-01 06:58:00,71.2,59.3,30.08,SSE,158,5.8,5.8,66,0.00,CLR,,0.00,WeatherDisplay:10.37,2013-01-01 11:58:00,
2013-01-01 07:03:00,71.4,59.5,30.08,SE,135,6.9,6.9,66,0.00,CLR,,0.00,WeatherDisplay:10.37,2013-01-01 12:03:00,
2013-01-01 07:08:00,71.2,59.3,30.08,SE,135,4.6,4.6,66,0.00,CLR,,0.00,WeatherDisplay:10.37,2013-01-01 12:08:00,
2013-01-01 07:13:00,71.4,59.0,30.08,SE,135,9.2,9.2,65,0.00,CLR,,0.00,WeatherDisplay:10.37,2013-01-01 12:13:00,
2013-01-01 07:18:00,71.2,58.9,30.08,SE,135,4.6,4.9,65,0.00,CLR,,0.00,WeatherDisplay:10.37,2013-01-01 12:18:00,
2013-01-01 07:23:00,71.1,59.1,30.08,SE,135,5.8,5.8,66,0.00,CLR,,0.00,WeatherDisplay:10.37,2013-01-01 12:23:00,
2013-01-01 07:28:00,71.1,59.1,30.08,SE,135,6.9,6.9,66,0.00,CLR,,0.00,WeatherDisplay:10.37,2013-01-01 12:28:00,
2013-01-01 07:33:00,71.1,59.5,30.08,South,180,8.1,8.1,67,0.00,CLR,,0.00,WeatherDisplay:10.37,2013-01-01 12:33:00,
2013-01-01 07:38:00,71.4,59.9,30.08,ESE,112,5.8,5.8,67,0.00,CLR,,0.00,WeatherDisplay:10.37,2013-01-01 12:38:00,
2013-01-01 07:43:00,71.4,59.9,30.08,SSE,158,9.7,9.7,67,0.00,CLR,,0.00,WeatherDisplay:10.37,2013-01-01 12:43:00,
2013-01-01 07:48:00,71.6,59.6,30.08,SE,135,6.9,6.9,66,0.00,CLR,,0.00,WeatherDisplay:10.37,2013-01-01 12:48:00,
2013-01-01 07:53:00,71.8,59.8,30.08,SSE,158,6.9,6.9,66,0.00,CLR,,0.00,WeatherDisplay:10.37,2013-01-01 12:53:00,
2013-01-01 07:58:00,72.1,60.2,30.08,SSE,158,6.3,6.3,66,0.00,CLR,,0.00,WeatherDisplay:10.37,2013-01-01 12:58:00,
2013-01-01 08:03:00,72.3,60.3,30.08,SSE,158,8.1,8.1,66,0.00,CLR,,0.00,WeatherDisplay:10.37,2013-01-01 13:03:00,
2013-01-01 08:08:00,72.5,59.6,30.09,SE,135,3.9,5.8,64,0.00,CLR,,0.00,WeatherDisplay:10.37,2013-01-01 13:08:00,
2013-01-01 08:13:00,72.1,59.7,30.09,SE,135,5.8,5.8,65,0.00,CLR,,0.00,WeatherDisplay:10.37,2013-01-01 13:13:00,
2013-01-01 08:18:00,72.5,59.6,30.09,South,180,5.8,5.8,64,0.00,CLR,,0.00,WeatherDisplay:10.37,2013-01-01 13:18:00,
2013-01-01 08:23:00,72.9,60.0,30.09,SE,135,7.2,7.2,64,0.00,CLR,,0.00,WeatherDisplay:10.37,2013-01-01 13:23:00,
2013-01-01 08:28:00,73.6,60.6,30.09,SE,135,8.7,8.7,64,0.00,CLR,,0.00,WeatherDisplay:10.37,2013-01-01 13:28:00,
2013-01-01 08:33:00,73.6,60.6,30.09,SE,135,9.2,9.2,64,0.00,CLR,,0.00,WeatherDisplay:10.37,2013-01-01 13:33:00,
2013-01-01 08:38:00,73.4,60.0,30.09,South,180,7.2,7.2,63,0.00,CLR,,0.00,WeatherDisplay:10.37,2013-01-01 13:38:00,
2013-01-01 08:43:00,73.6,60.2,30.09,SSE,158,9.2,9.2,63,0.00,CLR,,0.00,WeatherDisplay:10.37,2013-01-01 13:43:00,
2013-01-01 08:49:00,73.2,59.9,30.10,North,0,6.9,6.9,63,0.00,CLR,,0.00,WeatherDisplay:10.37,2013-01-01 13:49:00,
2013-01-01 08:54:00,73.2,60.3,30.10,South,180,6.9,6.9,64,0.00,CLR,,0.00,WeatherDisplay:10.37,2013-01-01 13:54:00,
2013-01-01 08:59:00,73.9,60.5,30.10,SE,135,11.5,11.5,63,0.00,CLR,,0.00,WeatherDisplay:10.37,2013-01-01 13:59:00,
2013-01-01 09:04:00,74.1,60.3,30.10,SSE,158,8.1,8.1,62,0.00,CLR,,0.00,WeatherDisplay:10.37,2013-01-01 14:04:00,
2013-01-01 09:09:00,74.5,60.6,30.10,SE,135,8.1,8.1,62,0.00,CLR,,0.00,WeatherDisplay:10.37,2013-01-01 14:09:00,
2013-01-01 09:14:00,74.5,60.6,30.10,South,180,8.1,8.1,62,0.00,CLR,,0.00,WeatherDisplay:10.37,2013-01-01 14:14:00,
2013-01-01 09:19:00,75.0,61.1,30.10,SSW,202,13.3,13.3,62,0.00,CLR,,0.00,WeatherDisplay:10.37,2013-01-01 14:19:00,
2013-01-01 09:24:00,75.0,61.1,30.10,SE,135,9.4,9.4,62,0.00,CLR,,0.00,WeatherDisplay:10.37,2013-01-01 14:24:00,
2013-01-01 09:29:00,75.0,61.1,30.10,SE,135,11.5,11.5,62,0.00,CLR,,0.00,WeatherDisplay:10.37,2013-01-01 14:29:00,
2013-01-01 09:34:00,75.2,61.3,30.10,ESE,112,12.7,12.7,62,0.00,CLR,,0.00,WeatherDisplay:10.37,2013-01-01 14:34:00,
2013-01-01 09:39:00,75.2,61.3,30.10,SE,135,10.4,10.4,62,0.00,CLR,,0.00,WeatherDisplay:10.37,2013-01-01 14:39:00,
2013-01-01 09:44:00,75.4,61.5,30.10,SSE,158,5.8,5.8,62,0.00,CLR,,0.00,WeatherDisplay:10.37,2013-01-01 14:44:00,
2013-01-01 09:49:00,75.7,61.8,30.11,ESE,112,9.2,9.2,62,0.00,CLR,,0.00,WeatherDisplay:10.37,2013-01-01 14:49:00,
2013-01-01 09:54:00,75.7,61.3,30.11,SSE,158,9.5,9.5,61,0.00,CLR,,0.00,WeatherDisplay:10.37,2013-01-01 14:54:00,
2013-01-01 09:59:00,75.9,62.0,30.11,SSW,202,9.2,9.2,62,0.00,CLR,,0.00,WeatherDisplay:10.37,2013-01-01 14:59:00,
2013-01-01 10:04:00,76.1,61.7,30.11,SSE,158,4.6,5.3,61,0.00,CLR,,0.00,WeatherDisplay:10.37,2013-01-01 15:04:00,
2013-01-01 10:09:00,75.7,61.3,30.11,SSE,158,10.4,10.4,61,0.00,CLR,,0.00,WeatherDisplay:10.37,2013-01-01 15:09:00,
2013-01-01 10:14:00,76.1,62.1,30.11,SSE,158,10.4,10.4,62,0.00,CLR,,0.00,WeatherDisplay:10.37,2013-01-01 15:14:00,
2013-01-01 10:19:00,76.8,62.3,30.11,South,180,10.4,10.4,61,0.00,CLR,,0.00,WeatherDisplay:10.37,2013-01-01 15:19:00,
2013-01-01 10:24:00,76.5,62.0,30.11,SE,135,9.2,9.2,61,0.00,CLR,,0.00,WeatherDisplay:10.37,2013-01-01 15:24:00,
2013-01-01 10:29:00,76.8,62.8,30.10,SSE,158,10.4,10.4,62,0.00,CLR,,0.00,WeatherDisplay:10.37,2013-01-01 15:29:00,
2013-01-01 10:34:00,77.0,63.0,30.10,SE,135,8.1,8.1,62,0.00,CLR,,0.00,WeatherDisplay:10.37,2013-01-01 15:34:00,
2013-01-01 10:39:00,77.0,63.0,30.10,SSW,202,10.4,10.4,62,0.00,CLR,,0.00,WeatherDisplay:10.37,2013-01-01 15:39:00,
2013-01-01 10:44:00,77.2,63.2,30.10,South,180,13.8,13.8,62,0.00,CLR,,0.00,WeatherDisplay:10.37,2013-01-01 15:44:00,
2013-01-01 10:49:00,77.2,63.2,30.09,SE,135,8.1,8.1,62,0.00,CLR,,0.00,WeatherDisplay:10.37,2013-01-01 15:49:00,
2013-01-01 10:54:00,77.4,63.3,30.09,South,180,7.2,7.2,62,0.00,CLR,,0.00,WeatherDisplay:10.37,2013-01-01 15:54:00,
2013-01-01 10:59:00,77.2,63.2,30.09,SSE,158,6.9,6.9,62,0.00,CLR,,0.00,WeatherDisplay:10.37,2013-01-01 15:59:00,
2013-01-01 11:04:00,77.5,63.5,30.09,SE,135,5.1,6.0,62,0.00,CLR,,0.00,WeatherDisplay:10.37,2013-01-01 16:04:00,
2013-01-01 11:09:00,77.9,63.4,30.08,SSE,158,11.5,11.5,61,0.00,CLR,,0.00,WeatherDisplay:10.37,2013-01-01 16:09:00,
2013-01-01 11:14:00,77.5,63.0,30.08,South,180,7.5,7.5,61,0.00,CLR,,0.00,WeatherDisplay:10.37,2013-01-01 16:14:00,
2013-01-01 11:19:00,78.1,63.5,30.08,South,180,6.9,6.9,61,0.00,CLR,,0.00,WeatherDisplay:10.37,2013-01-01 16:19:00,
2013-01-01 11:24:00,78.1,63.5,30.08,South,180,11.5,11.5,61,0.00,CLR,,0.00,WeatherDisplay:10.37,2013-01-01 16:24:00,
2013-01-01 11:29:00,78.8,64.2,30.09,SSW,202,5.8,5.8,61,0.00,CLR,,0.00,WeatherDisplay:10.37,2013-01-01 16:29:00,
2013-01-01 11:34:00,78.8,63.7,30.09,SSE,158,10.4,10.4,60,0.00,CLR,,0.00,WeatherDisplay:10.37,2013-01-01 16:34:00,
2013-01-01 11:39:00,78.8,63.7,30.09,SSE,158,8.1,8.1,60,0.00,CLR,,0.00,WeatherDisplay:10.37,2013-01-01 16:39:00,
2013-01-01 11:44:00,79.0,63.4,30.09,South,180,9.2,9.2,59,0.00,CLR,,0.00,WeatherDisplay:10.37,2013-01-01 16:44:00,
2013-01-01 11:49:00,78.8,63.3,30.08,SSE,158,10.4,10.4,59,0.00,CLR,,0.00,WeatherDisplay:10.37,2013-01-01 16:49:00,
2013-01-01 11:54:00,78.4,62.9,30.08,South,180,12.0,12.0,59,0.00,CLR,,0.00,WeatherDisplay:10.37,2013-01-01 16:54:00,
2013-01-01 11:59:00,78.8,63.3,30.08,SW,225,11.8,11.8,59,0.00,CLR,,0.00,WeatherDisplay:10.37,2013-01-01 16:59:00,
2013-01-01 12:04:00,79.0,63.4,30.08,SSE,158,8.2,8.2,59,0.00,CLR,,0.00,WeatherDisplay:10.37,2013-01-01 17:04:00,
2013-01-01 12:09:00,79.0,63.4,30.08,SSE,158,8.2,8.2,59,0.00,CLR,,0.00,WeatherDisplay:10.37,2013-01-01 17:09:00,
2013-01-01 12:14:00,78.6,63.1,30.08,SSE,158,13.8,13.8,59,0.00,CLR,,0.00,WeatherDisplay:10.37,2013-01-01 17:14:00,
2013-01-01 12:19:00,79.0,63.4,30.08,South,180,17.3,17.3,59,0.00,CLR,,0.00,WeatherDisplay:10.37,2013-01-01 17:19:00,
2013-01-01 12:24:00,79.3,63.3,30.08,SE,135,11.5,11.5,58,0.00,CLR,,0.00,WeatherDisplay:10.37,2013-01-01 17:24:00,
2013-01-01 12:29:00,79.3,63.3,30.06,South,180,9.2,9.2,58,0.00,CLR,,0.00,WeatherDisplay:10.37,2013-01-01 17:29:00,
2013-01-01 12:34:00,79.3,63.8,30.06,SSW,202,6.0,6.0,59,0.00,CLR,,0.00,WeatherDisplay:10.37,2013-01-01 17:34:00,
2013-01-01 12:39:00,79.3,63.8,30.06,SSE,158,9.3,9.3,59,0.00,CLR,,0.00,WeatherDisplay:10.37,2013-01-01 17:39:00,
2013-01-01 12:44:00,79.3,63.8,30.06,South,180,6.9,6.9,59,0.00,CLR,,0.00,WeatherDisplay:10.37,2013-01-01 17:44:00,
2013-01-01 12:49:00,79.3,63.8,30.05,NW,315,6.9,6.9,59,0.00,CLR,,0.00,WeatherDisplay:10.37,2013-01-01 17:49:00,
2013-01-01 12:54:00,79.3,63.8,30.05,SSE,158,12.7,12.7,59,0.00,CLR,,0.00,WeatherDisplay:10.37,2013-01-01 17:54:00,
2013-01-01 12:59:00,79.5,63.9,30.05,SSE,158,10.4,10.4,59,0.00,CLR,,0.00,WeatherDisplay:10.37,2013-01-01 17:59:00,
2013-01-01 13:04:00,79.3,63.8,30.05,SSE,158,6.0,6.3,59,0.00,CLR,,0.00,WeatherDisplay:10.37,2013-01-01 18:04:00,
2013-01-01 13:09:00,79.3,63.8,30.04,SE,135,9.5,9.5,59,0.00,CLR,,0.00,WeatherDisplay:10.37,2013-01-01 18:09:00,
2013-01-01 13:14:00,79.3,63.8,30.04,WNW,292,10.4,10.4,59,0.00,CLR,,0.00,WeatherDisplay:10.37,2013-01-01 18:14:00,
2013-01-01 13:19:00,79.5,63.9,30.04,SSE,158,10.4,10.4,59,0.00,CLR,,0.00,WeatherDisplay:10.37,2013-01-01 18:19:00,
2013-01-01 13:24:00,79.3,63.3,30.04,SSE,158,9.4,9.4,58,0.00,CLR,,0.00,WeatherDisplay:10.37,2013-01-01 18:24:00,
2013-01-01 13:29:00,79.2,63.6,30.04,SSW,202,9.2,9.2,59,0.00,CLR,,0.00,WeatherDisplay:10.37,2013-01-01 18:29:00,
2013-01-01 13:34:00,79.3,63.8,30.04,SSE,158,9.4,9.4,59,0.00,CLR,,0.00,WeatherDisplay:10.37,2013-01-01 18:34:00,
2013-01-01 13:39:00,79.3,63.8,30.04,South,180,9.2,9.2,59,0.00,CLR,,0.00,WeatherDisplay:10.37,2013-01-01 18:39:00,
2013-01-01 13:44:00,79.7,63.6,30.04,SSE,158,6.9,6.9,58,0.00,CLR,,0.00,WeatherDisplay:10.37,2013-01-01 18:44:00,
2013-01-01 13:49:00,79.3,63.3,30.04,South,180,6.9,6.9,58,0.00,CLR,,0.00,WeatherDisplay:10.37,2013-01-01 18:49:00,
2013-01-01 13:54:00,79.3,63.8,30.04,SSE,158,8.1,8.1,59,0.00,CLR,,0.00,WeatherDisplay:10.37,2013-01-01 18:54:00,
2013-01-01 13:59:00,79.3,63.8,30.04,SE,135,8.1,8.1,59,0.00,CLR,,0.00,WeatherDisplay:10.37,2013-01-01 18:59:00,
2013-01-01 14:04:00,79.2,63.6,30.04,SSE,158,8.6,8.6,59,0.00,CLR,,0.00,WeatherDisplay:10.37,2013-01-01 19:04:00,
2013-01-01 14:09:00,79.3,63.8,30.03,SW,225,11.5,11.5,59,0.00,CLR,,0.00,WeatherDisplay:10.37,2013-01-01 19:09:00,
2013-01-01 14:14:00,79.2,63.6,30.03,SW,225,13.8,13.8,59,0.00,CLR,,0.00,WeatherDisplay:10.37,2013-01-01 19:14:00,
2013-01-01 14:19:00,79.2,63.6,30.03,SSE,158,11.8,11.8,59,0.00,CLR,,0.00,WeatherDisplay:10.37,2013-01-01 19:19:00,
2013-01-01 14:24:00,79.0,63.9,30.03,SSW,202,3.8,4.5,60,0.00,CLR,,0.00,WeatherDisplay:10.37,2013-01-01 19:24:00,
2013-01-01 14:29:00,79.2,64.1,30.03,South,180,3.5,3.8,60,0.00,CLR,,0.00,WeatherDisplay:10.37,2013-01-01 19:29:00,
2013-01-01 14:34:00,79.7,64.1,30.03,West,270,8.1,8.1,59,0.00,CLR,,0.00,WeatherDisplay:10.37,2013-01-01 19:34:00,
2013-01-01 14:39:00,79.5,63.9,30.03,SSW,202,4.6,4.6,59,0.00,CLR,,0.00,WeatherDisplay:10.37,2013-01-01 19:39:00,
2013-01-01 14:44:00,79.5,63.9,30.03,South,180,5.8,5.8,59,0.00,CLR,,0.00,WeatherDisplay:10.37,2013-01-01 19:44:00,
2013-01-01 14:49:00,79.7,64.1,30.03,SSE,158,4.6,4.6,59,0.00,CLR,,0.00,WeatherDisplay:10.37,2013-01-01 19:49:00,
2013-01-01 14:54:00,79.3,64.2,30.03,NW,315,4.6,4.6,60,0.00,CLR,,0.00,WeatherDisplay:10.37,2013-01-01 19:54:00,
2013-01-01 14:59:00,79.2,63.6,30.03,South,180,9.2,9.2,59,0.00,CLR,,0.00,WeatherDisplay:10.37,2013-01-01 19:59:00,
2013-01-01 15:04:00,79.3,63.8,30.03,South,180,9.2,9.2,59,0.00,CLR,,0.00,WeatherDisplay:10.37,2013-01-01 20:04:00,
2013-01-01 15:09:00,78.8,63.3,30.03,SSE,158,8.2,8.2,59,0.00,CLR,,0.00,WeatherDisplay:10.37,2013-01-01 20:09:00,
2013-01-01 15:14:00,79.0,63.4,30.03,SE,135,6.9,6.9,59,0.00,CLR,,0.00,WeatherDisplay:10.37,2013-01-01 20:14:00,
2013-01-01 15:19:00,78.8,63.3,30.03,SE,135,8.1,8.1,59,0.00,CLR,,0.00,WeatherDisplay:10.37,2013-01-01 20:19:00,
2013-01-01 15:24:00,78.6,63.6,30.03,South,180,5.8,5.8,60,0.00,CLR,,0.00,WeatherDisplay:10.37,2013-01-01 20:24:00,
2013-01-01 15:29:00,78.8,63.7,30.03,SE,135,5.8,5.8,60,0.00,CLR,,0.00,WeatherDisplay:10.37,2013-01-01 20:29:00,
2013-01-01 15:34:00,78.8,63.7,30.03,South,180,9.2,9.2,60,0.00,CLR,,0.00,WeatherDisplay:10.37,2013-01-01 20:34:00,
2013-01-01 15:39:00,78.6,63.6,30.03,SE,135,9.2,9.2,60,0.00,CLR,,0.00,WeatherDisplay:10.37,2013-01-01 20:39:00,
2013-01-01 15:44:00,78.4,63.4,30.03,SSE,158,4.6,4.7,60,0.00,CLR,,0.00,WeatherDisplay:10.37,2013-01-01 20:44:00,
2013-01-01 15:49:00,78.6,63.6,30.02,SE,135,5.8,5.8,60,0.00,CLR,,0.00,WeatherDisplay:10.37,2013-01-01 20:49:00,
2013-01-01 15:54:00,78.6,63.6,30.02,SW,225,6.9,6.9,60,0.00,CLR,,0.00,WeatherDisplay:10.37,2013-01-01 20:54:00,
2013-01-01 15:59:00,78.1,63.5,30.02,West,270,3.5,4.0,61,0.00,CLR,,0.00,WeatherDisplay:10.37,2013-01-01 20:59:00,
2013-01-01 16:04:00,78.1,63.5,30.02,SSE,158,5.8,5.8,61,0.00,CLR,,0.00,WeatherDisplay:10.37,2013-01-01 21:04:00,
2013-01-01 16:09:00,77.9,63.4,30.02,SE,135,4.9,4.9,61,0.00,CLR,,0.00,WeatherDisplay:10.37,2013-01-01 21:09:00,
2013-01-01 16:14:00,77.5,63.0,30.02,SE,135,3.7,3.8,61,0.00,CLR,,0.00,WeatherDisplay:10.37,2013-01-01 21:14:00,
2013-01-01 16:19:00,77.5,63.5,30.02,NW,315,2.3,3.5,62,0.00,CLR,,0.00,WeatherDisplay:10.37,2013-01-01 21:19:00,
2013-01-01 16:24:00,77.5,63.9,30.02,ESE,112,7.2,7.2,63,0.00,CLR,,0.00,WeatherDisplay:10.37,2013-01-01 21:24:00,
2013-01-01 16:30:00,77.5,63.9,30.02,South,180,6.9,6.9,63,0.00,CLR,,0.00,WeatherDisplay:10.37,2013-01-01 21:30:00,
2013-01-01 16:35:00,77.0,63.0,30.02,South,180,2.3,3.7,62,0.00,CLR,,0.00,WeatherDisplay:10.37,2013-01-01 21:35:00,
2013-01-01 16:40:00,77.0,63.0,30.02,SSE,158,5.8,5.8,62,0.00,CLR,,0.00,WeatherDisplay:10.37,2013-01-01 21:40:00,
2013-01-01 16:45:00,76.8,62.8,30.02,SSE,158,6.0,6.0,62,0.00,CLR,,0.00,WeatherDisplay:10.37,2013-01-01 21:45:00,
2013-01-01 16:50:00,76.8,62.8,30.02,South,180,5.9,5.9,62,0.00,CLR,,0.00,WeatherDisplay:10.37,2013-01-01 21:50:00,
2013-01-01 16:55:00,76.6,63.1,30.02,SE,135,4.9,4.9,63,0.00,CLR,,0.00,WeatherDisplay:10.37,2013-01-01 21:55:00,
2013-01-01 17:00:00,76.6,63.1,30.02,South,180,3.5,3.7,63,0.00,CLR,,0.00,WeatherDisplay:10.37,2013-01-01 22:00:00,
2013-01-01 17:05:00,76.5,62.9,30.02,South,180,5.8,5.8,63,0.00,CLR,,0.00,WeatherDisplay:10.37,2013-01-01 22:05:00,
2013-01-01 17:10:00,76.5,62.9,30.02,South,180,2.3,2.9,63,0.00,CLR,,0.00,WeatherDisplay:10.37,2013-01-01 22:10:00,
2013-01-01 17:15:00,76.3,63.2,30.02,SW,225,3.5,3.5,64,0.00,CLR,,0.00,WeatherDisplay:10.37,2013-01-01 22:15:00,
2013-01-01 17:20:00,76.5,63.8,30.02,SE,135,3.5,3.5,65,0.00,CLR,,0.00,WeatherDisplay:10.37,2013-01-01 22:20:00,
2013-01-01 17:25:00,76.5,63.8,30.02,SSE,158,3.7,3.7,65,0.00,CLR,,0.00,WeatherDisplay:10.37,2013-01-01 22:25:00,
2013-01-01 17:30:00,76.1,63.5,30.01,South,180,4.6,4.6,65,0.00,CLR,,0.00,WeatherDisplay:10.37,2013-01-01 22:30:00,
2013-01-01 17:35:00,76.1,63.5,30.01,SE,135,4.9,4.9,65,0.00,CLR,,0.00,WeatherDisplay:10.37,2013-01-01 22:35:00,
2013-01-01 17:40:00,76.1,63.5,30.01,SSE,158,3.5,3.5,65,0.00,CLR,,0.00,WeatherDisplay:10.37,2013-01-01 22:40:00,
2013-01-01 17:45:00,76.1,63.5,30.01,South,180,3.7,3.7,65,0.00,CLR,,0.00,WeatherDisplay:10.37,2013-01-01 22:45:00,
2013-01-01 17:50:00,75.9,63.3,30.02,SSE,158,3.8,3.8,65,0.00,CLR,,0.00,WeatherDisplay:10.37,2013-01-01 22:50:00,
2013-01-01 17:55:00,75.6,63.0,30.02,SSE,158,2.8,2.8,65,0.00,CLR,,0.00,WeatherDisplay:10.37,2013-01-01 22:55:00,
2013-01-01 18:00:00,75.7,63.1,30.02,SW,225,1.1,2.1,65,0.00,CLR,,0.00,WeatherDisplay:10.37,2013-01-01 23:00:00,
2013-01-01 18:05:00,75.6,63.0,30.02,SSW,202,5.8,5.8,65,0.00,CLR,,0.00,WeatherDisplay:10.37,2013-01-01 23:05:00,
2013-01-01 18:10:00,75.6,63.0,30.02,WSW,248,2.4,2.4,65,0.00,CLR,,0.00,WeatherDisplay:10.37,2013-01-01 23:10:00,
2013-01-01 18:15:00,75.4,63.2,30.02,SE,135,3.5,3.5,66,0.00,CLR,,0.00,WeatherDisplay:10.37,2013-01-01 23:15:00,
2013-01-01 18:20:00,75.4,62.8,30.02,SSE,158,3.5,3.5,65,0.00,CLR,,0.00,WeatherDisplay:10.37,2013-01-01 23:20:00,
2013-01-01 18:25:00,75.4,62.4,30.02,SSE,158,1.1,1.1,64,0.00,CLR,,0.00,WeatherDisplay:10.37,2013-01-01 23:25:00,
2013-01-01 18:30:00,75.4,62.4,30.02,SSW,202,0.0,0.7,64,0.00,CLR,,0.00,WeatherDisplay:10.37,2013-01-01 23:30:00,
2013-01-01 18:35:00,75.4,62.8,30.02,SSE,158,0.0,0.1,65,0.00,CLR,,0.00,WeatherDisplay:10.37,2013-01-01 23:35:00,
2013-01-01 18:40:00,75.2,62.6,30.02,SE,135,2.3,2.3,65,0.00,CLR,,0.00,WeatherDisplay:10.37,2013-01-01 23:40:00,
2013-01-01 18:45:00,75.4,62.8,30.02,SSE,158,1.1,1.1,65,0.00,CLR,,0.00,WeatherDisplay:10.37,2013-01-01 23:45:00,
2013-01-01 18:50:00,75.4,62.8,30.02,SSE,158,2.3,2.3,65,0.00,CLR,,0.00,WeatherDisplay:10.37,2013-01-01 23:50:00,
2013-01-01 18:55:00,75.2,62.6,30.02,South,180,0.0,0.1,65,0.00,CLR,,0.00,WeatherDisplay:10.37,2013-01-01 23:55:00,
2013-01-01 19:00:00,75.2,62.6,30.02,NNW,338,0.0,0.1,65,0.00,CLR,,0.00,WeatherDisplay:10.37,2013-01-02 00:00:00,
2013-01-01 19:05:00,75.0,62.5,30.02,SE,135,0.0,0.0,65,0.00,CLR,,0.00,WeatherDisplay:10.37,2013-01-02 00:05:00,
2013-01-01 19:10:00,75.0,62.5,30.03,South,180,0.0,0.0,65,0.00,CLR,,0.00,WeatherDisplay:10.37,2013-01-02 00:10:00,
2013-01-01 19:15:00,75.0,62.5,30.03,ESE,112,0.0,0.0,65,0.00,CLR,,0.00,WeatherDisplay:10.37,2013-01-02 00:15:00,
2013-01-01 19:20:00,74.8,62.7,30.03,SSE,158,0.0,0.0,66,0.00,CLR,,0.00,WeatherDisplay:10.37,2013-01-02 00:20:00,
2013-01-01 19:25:00,75.0,62.9,30.03,NW,315,0.0,0.0,66,0.00,CLR,,0.00,WeatherDisplay:10.37,2013-01-02 00:25:00,
2013-01-01 19:30:00,75.0,62.9,30.03,SSW,202,0.0,0.1,66,0.00,CLR,,0.00,WeatherDisplay:10.37,2013-01-02 00:30:00,
2013-01-01 19:35:00,75.0,62.9,30.03,SW,225,0.0,0.1,66,0.00,CLR,,0.00,WeatherDisplay:10.37,2013-01-02 00:35:00,
2013-01-01 19:40:00,75.0,62.9,30.03,SSW,202,0.0,0.0,66,0.00,CLR,,0.00,WeatherDisplay:10.37,2013-01-02 00:40:00,
2013-01-01 19:45:00,74.8,62.7,30.03,SE,135,0.0,0.0,66,0.00,CLR,,0.00,WeatherDisplay:10.37,2013-01-02 00:45:00,
2013-01-01 19:50:00,75.0,62.9,30.03,SSE,158,1.3,0.0,66,0.00,CLR,,0.00,WeatherDisplay:10.37,2013-01-02 00:50:00,
2013-01-01 19:55:00,74.7,62.5,30.03,WSW,248,0.0,0.0,66,0.00,CLR,,0.00,WeatherDisplay:10.37,2013-01-02 00:55:00,
2013-01-01 20:00:00,74.5,62.4,30.03,SE,135,0.0,0.0,66,0.00,CLR,,0.00,WeatherDisplay:10.37,2013-01-02 01:00:00,
2013-01-01 20:05:00,74.3,62.2,30.03,South,180,0.0,0.0,66,0.00,CLR,,0.00,WeatherDisplay:10.37,2013-01-02 01:05:00,
2013-01-01 20:10:00,74.3,62.6,30.03,SE,135,0.0,0.0,67,0.00,CLR,,0.00,WeatherDisplay:10.37,2013-01-02 01:10:00,
2013-01-01 20:15:00,73.9,61.9,30.03,South,180,0.0,0.0,66,0.00,CLR,,0.00,WeatherDisplay:10.37,2013-01-02 01:15:00,
2013-01-01 20:20:00,73.8,62.1,30.03,SSE,158,0.0,0.0,67,0.00,CLR,,0.00,WeatherDisplay:10.37,2013-01-02 01:20:00,
2013-01-01 20:25:00,73.6,61.9,30.03,SW,225,0.0,0.0,67,0.00,CLR,,0.00,WeatherDisplay:10.37,2013-01-02 01:25:00,
2013-01-01 20:30:00,73.6,62.4,30.03,SW,225,0.0,0.0,68,0.00,CLR,,0.00,WeatherDisplay:10.37,2013-01-02 01:30:00,
2013-01-01 20:35:00,73.6,62.4,30.03,SW,225,0.0,0.0,68,0.00,CLR,,0.00,WeatherDisplay:10.37,2013-01-02 01:35:00,
2013-01-01 20:40:00,73.0,61.9,30.03,SW,225,0.0,0.0,68,0.00,CLR,,0.00,WeatherDisplay:10.37,2013-01-02 01:40:00,
2013-01-01 20:45:00,72.9,61.7,30.03,South,180,0.0,0.0,68,0.00,CLR,,0.00,WeatherDisplay:10.37,2013-01-02 01:45:00,
2013-01-01 20:50:00,72.5,61.3,30.03,South,180,0.0,0.0,68,0.00,CLR,,0.00,WeatherDisplay:10.37,2013-01-02 01:50:00,
2013-01-01 20:55:00,72.1,61.4,30.03,WSW,248,0.0,0.0,69,0.00,CLR,,0.00,WeatherDisplay:10.37,2013-01-02 01:55:00,
2013-01-01 21:00:00,72.0,61.2,30.03,WSW,248,0.0,0.0,69,0.00,CLR,,0.00,WeatherDisplay:10.37,2013-01-02 02:00:00,
2013-01-01 21:05:00,72.0,61.2,30.03,WSW,248,0.0,0.0,69,0.00,CLR,,0.00,WeatherDisplay:10.37,2013-01-02 02:05:00,
2013-01-01 21:10:00,71.6,60.9,30.03,WSW,248,0.0,0.0,69,0.00,CLR,,0.00,WeatherDisplay:10.37,2013-01-02 02:10:00,
2013-01-01 21:15:00,71.6,60.9,30.03,WSW,248,0.0,0.0,69,0.00,CLR,,0.00,WeatherDisplay:10.37,2013-01-02 02:15:00,
2013-01-01 21:20:00,71.8,61.5,30.03,WSW,248,0.0,0.0,70,0.00,CLR,,0.00,WeatherDisplay:10.37,2013-01-02 02:20:00,
2013-01-01 21:25:00,71.8,61.5,30.03,WSW,248,0.0,0.0,70,0.00,CLR,,0.00,WeatherDisplay:10.37,2013-01-02 02:25:00,
2013-01-01 21:30:00,71.4,61.1,30.03,West,270,0.0,0.0,70,0.00,CLR,,0.00,WeatherDisplay:10.37,2013-01-02 02:30:00,
2013-01-01 21:35:00,71.4,61.1,30.03,West,270,0.0,0.0,70,0.00,CLR,,0.00,WeatherDisplay:10.37,2013-01-02 02:35:00,
2013-01-01 21:40:00,71.2,61.0,30.03,WNW,292,0.0,0.0,70,0.00,CLR,,0.00,WeatherDisplay:10.37,2013-01-02 02:40:00,
2013-01-01 21:45:00,71.2,61.0,30.03,WNW,292,0.0,0.0,70,0.00,CLR,,0.00,WeatherDisplay:10.37,2013-01-02 02:45:00,
2013-01-01 21:50:00,71.1,60.8,30.04,WNW,292,0.0,0.0,70,0.00,CLR,,0.00,WeatherDisplay:10.37,2013-01-02 02:50:00,
2013-01-01 21:55:00,70.9,61.0,30.04,WNW,292,0.0,0.0,71,0.00,CLR,,0.00,WeatherDisplay:10.37,2013-01-02 02:55:00,
2013-01-01 22:00:00,70.7,60.8,30.04,WNW,292,0.0,0.0,71,0.00,CLR,,0.00,WeatherDisplay:10.37,2013-01-02 03:00:00,
2013-01-01 22:05:00,70.7,60.8,30.04,WNW,292,0.0,0.0,71,0.00,CLR,,0.00,WeatherDisplay:10.37,2013-01-02 03:05:00,
2013-01-01 22:10:00,70.7,60.8,30.04,WSW,248,0.0,0.0,71,0.00,CLR,,0.00,WeatherDisplay:10.37,2013-01-02 03:10:00,
2013-01-01 22:15:00,70.7,60.8,30.04,WSW,248,0.0,0.0,71,0.00,CLR,,0.00,WeatherDisplay:10.37,2013-01-02 03:15:00,
2013-01-01 22:20:00,70.7,60.8,30.04,SE,135,0.0,0.0,71,0.00,CLR,,0.00,WeatherDisplay:10.37,2013-01-02 03:20:00,
2013-01-01 22:25:00,70.3,60.5,30.04,SE,135,0.0,0.0,71,0.00,CLR,,0.00,WeatherDisplay:10.37,2013-01-02 03:25:00,
2013-01-01 22:30:00,70.2,60.3,30.03,SE,135,0.0,0.0,71,0.00,CLR,,0.00,WeatherDisplay:10.37,2013-01-02 03:30:00,
2013-01-01 22:35:00,70.0,60.5,30.03,SE,135,0.0,0.0,72,0.00,CLR,,0.00,WeatherDisplay:10.37,2013-01-02 03:35:00,
2013-01-01 22:40:00,70.0,60.5,30.03,SE,135,0.0,0.0,72,0.00,CLR,,0.00,WeatherDisplay:10.37,2013-01-02 03:40:00,
2013-01-01 22:45:00,70.0,60.5,30.03,SE,135,0.0,0.0,72,0.00,CLR,,0.00,WeatherDisplay:10.37,2013-01-02 03:45:00,
2013-01-01 22:50:00,69.6,60.2,30.03,SE,135,0.0,0.0,72,0.00,CLR,,0.00,WeatherDisplay:10.37,2013-01-02 03:50:00,
2013-01-01 22:55:00,69.4,60.0,30.03,SE,135,0.0,0.0,72,0.00,CLR,,0.00,WeatherDisplay:10.37,2013-01-02 03:55:00,
2013-01-01 23:00:00,69.4,60.0,30.03,SE,135,0.0,0.0,72,0.00,CLR,,0.00,WeatherDisplay:10.37,2013-01-02 04:00:00,
2013-01-01 23:05:00,69.3,59.8,30.03,SE,135,0.0,0.0,72,0.00,CLR,,0.00,WeatherDisplay:10.37,2013-01-02 04:05:00,
2013-01-01 23:10:00,69.3,59.8,30.02,SE,135,0.0,0.0,72,0.00,CLR,,0.00,WeatherDisplay:10.37,2013-01-02 04:10:00,
2013-01-01 23:15:00,69.3,59.8,30.02,SE,135,0.0,0.0,72,0.00,CLR,,0.00,WeatherDisplay:10.37,2013-01-02 04:15:00,
2013-01-01 23:20:00,68.9,59.5,30.02,ESE,112,0.0,0.0,72,0.00,CLR,,0.00,WeatherDisplay:10.37,2013-01-02 04:20:00,
2013-01-01 23:25:00,68.9,59.5,30.02,ESE,112,0.0,0.0,72,0.00,CLR,,0.00,WeatherDisplay:10.37,2013-01-02 04:25:00,
2013-01-01 23:30:00,68.7,59.3,30.02,SE,135,0.0,0.0,72,0.00,CLR,,0.00,WeatherDisplay:10.37,2013-01-02 04:30:00,
2013-01-01 23:35:00,68.9,59.5,30.02,SE,135,0.0,0.0,72,0.00,CLR,,0.00,WeatherDisplay:10.37,2013-01-02 04:35:00,
2013-01-01 23:40:00,68.7,59.3,30.02,SE,135,0.0,0.0,72,0.00,CLR,,0.00,WeatherDisplay:10.37,2013-01-02 04:40:00,
2013-01-01 23:45:00,68.7,59.3,30.02,SSE,158,0.0,0.0,72,0.00,CLR,,0.00,WeatherDisplay:10.37,2013-01-02 04:45:00,
2013-01-01 23:50:00,68.5,59.2,30.01,SE,135,0.0,0.0,72,0.00,CLR,,0.00,WeatherDisplay:10.37,2013-01-02 04:50:00,
2013-01-01 23:55:00,68.5,59.2,30.01,SE,135,0.0,0.0,72,0.00,CLR,,0.00,WeatherDisplay:10.37,2013-01-02 04:55:00,